Time;durP1;ratioP1;P1;durP2;ratioP2;P2;SDS_P1;SDS_P2;PMS_P1;PMS_P2;Temp;Humidity;BMP_temperature;BMP_pressure;BME280_temperature;BME280_humidity;BME280_pressure;Samples;Min_cycle;Max_cycle;Signal;HPM_P1;HPM_P2
2022/09/10 00:00:42;;;;;;;8.60;7.78;;;16.10;99.90;;;;;;4976586;28;20054;-69
2022/09/10 00:03:09;;;;;;;9.00;7.97;;;16.10;99.90;;;;;;4976778;28;20050;-69
2022/09/10 00:05:40;;;;;;;10.02;7.90;;;16.10;99.90;;;;;;4976809;28;20090;-69
2022/09/10 00:08:06;;;;;;;10.63;7.63;;;16.10;99.90;;;;;;4976389;28;20046;-69
2022/09/10 00:10:41;;;;;;;9.23;8.32;;;16.00;99.90;;;;;;4976371;28;20113;-69
2022/09/10 00:13:09;;;;;;;10.82;9.15;;;16.10;99.90;;;;;;4976435;28;20081;-69
2022/09/10 00:15:39;;;;;;;9.93;8.93;;;16.00;99.90;;;;;;4976677;28;20125;-69
2022/09/10 00:18:05;;;;;;;10.35;8.25;;;16.00;99.90;;;;;;4976263;28;20125;-69
2022/09/10 00:20:30;;;;;;;12.73;9.02;;;16.00;99.90;;;;;;4976541;28;20121;-69
2022/09/10 00:22:56;;;;;;;9.75;8.68;;;16.00;99.90;;;;;;4976358;28;20523;-69
2022/09/10 00:25:22;;;;;;;11.75;9.35;;;16.00;99.90;;;;;;4976349;28;20076;-69
2022/09/10 00:27:47;;;;;;;9.93;8.98;;;16.00;99.90;;;;;;4976254;28;20057;-69
2022/09/10 00:30:13;;;;;;;10.73;9.57;;;16.00;99.90;;;;;;4976234;28;20046;-69
2022/09/10 00:32:38;;;;;;;11.20;9.20;;;16.00;99.90;;;;;;4976528;28;20073;-69
2022/09/10 00:35:05;;;;;;;10.55;9.38;;;16.00;99.90;;;;;;4976488;28;20081;-69
2022/09/10 00:37:31;;;;;;;10.57;9.40;;;16.00;99.90;;;;;;4976103;28;20049;-69
2022/09/10 00:39:57;;;;;;;12.23;9.70;;;16.00;99.90;;;;;;4980198;28;20038;-69
2022/09/10 00:42:23;;;;;;;11.32;10.20;;;16.00;99.90;;;;;;4980174;28;20049;-69
2022/09/10 00:44:57;;;;;;;12.27;10.30;;;16.00;99.90;;;;;;4980067;28;20038;-69
2022/09/10 00:47:38;;;;;;;13.75;11.10;;;16.00;99.90;;;;;;4996321;28;20042;-69
2022/09/10 00:50:12;;;;;;;12.50;11.30;;;16.00;99.90;;;;;;4980193;28;20108;-69
2022/09/10 00:52:38;;;;;;;14.85;12.00;;;16.00;99.90;;;;;;4963925;28;20046;-69
2022/09/10 00:55:05;;;;;;;12.00;10.68;;;16.00;99.90;;;;;;4979948;28;20495;-69
2022/09/10 00:57:31;;;;;;;11.35;10.30;;;15.90;99.90;;;;;;4980044;28;20112;-69
2022/09/10 01:00:04;;;;;;;12.85;11.48;;;15.90;99.90;;;;;;4979840;28;20410;-69
2022/09/10 01:02:30;;;;;;;12.82;11.52;;;16.00;99.90;;;;;;4980094;28;20112;-69
2022/09/10 01:04:59;;;;;;;13.18;11.77;;;16.00;99.90;;;;;;4979662;28;20487;-69
2022/09/10 01:07:28;;;;;;;12.35;11.05;;;16.00;99.90;;;;;;4979647;28;20034;-69
2022/09/10 01:09:58;;;;;;;13.02;11.73;;;15.90;99.90;;;;;;4979901;28;20399;-69
2022/09/10 01:12:29;;;;;;;12.38;11.25;;;16.00;99.90;;;;;;4997522;28;20407;-69
2022/09/10 01:15:06;;;;;;;16.05;12.13;;;16.00;99.90;;;;;;4979806;28;20490;-69
2022/09/10 01:17:44;;;;;;;15.57;12.32;;;16.00;99.90;;;;;;4997168;28;20093;-69
2022/09/10 01:20:35;;;;;;;14.57;12.77;;;16.00;99.90;;;;;;4979740;28;20113;-69
2022/09/10 01:23:41;;;;;;;13.55;12.20;;;16.00;99.90;;;;;;4979699;28;20491;-69
2022/09/10 01:26:31;;;;;;;14.48;12.63;;;16.00;99.90;;;;;;4979379;28;20070;-69
2022/09/10 01:29:06;;;;;;;16.98;12.68;;;16.00;99.90;;;;;;4979601;28;20042;-69
2022/09/10 01:31:52;;;;;;;16.00;13.73;;;16.00;99.90;;;;;;4979249;28;20105;-69
2022/09/10 01:34:49;;;;;;;14.90;12.85;;;16.00;99.90;;;;;;4979540;28;20081;-69
2022/09/10 01:37:37;;;;;;;16.77;15.07;;;16.00;99.90;;;;;;4973762;28;20061;-69
2022/09/10 01:40:03;;;;;;;18.20;15.63;;;16.00;99.90;;;;;;4979263;28;20053;-69
2022/09/10 01:42:31;;;;;;;21.75;16.48;;;16.00;99.90;;;;;;4979281;28;20042;-69
2022/09/10 01:44:57;;;;;;;16.88;14.45;;;16.00;99.90;;;;;;4979312;28;20034;-69
2022/09/10 01:47:58;;;;;;;18.20;15.50;;;16.00;99.90;;;;;;4978904;28;20411;-69
2022/09/10 01:50:38;;;;;;;15.80;13.95;;;16.00;99.90;;;;;;4975002;28;20418;-69
2022/09/10 01:53:21;;;;;;;18.35;16.30;;;16.00;99.90;;;;;;4978895;28;20046;-69
2022/09/10 01:55:55;;;;;;;22.33;17.42;;;16.00;99.90;;;;;;4978852;28;20389;-69
2022/09/10 01:58:33;;;;;;;18.08;16.17;;;16.00;99.90;;;;;;4978746;28;20515;-69
2022/09/10 02:01:18;;;;;;;18.33;16.33;;;16.10;99.90;;;;;;4996249;28;20051;-69
2022/09/10 02:03:47;;;;;;;19.85;17.50;;;16.00;99.90;;;;;;4978748;28;20050;-69
2022/09/10 02:06:19;;;;;;;18.73;16.83;;;16.00;99.90;;;;;;4978628;28;20073;-69
2022/09/10 02:08:48;;;;;;;18.30;16.57;;;16.00;99.90;;;;;;4996350;28;20053;-69
2022/09/10 02:11:14;;;;;;;19.48;16.40;;;16.00;99.90;;;;;;4978577;28;20045;-69
2022/09/10 02:13:41;;;;;;;19.23;17.23;;;16.00;99.90;;;;;;4978818;28;20399;-69
2022/09/10 02:16:36;;;;;;;18.20;16.40;;;16.00;99.90;;;;;;4978378;28;20050;-69
2022/09/10 02:19:03;;;;;;;20.17;15.90;;;16.10;99.90;;;;;;4962474;28;20402;-69
2022/09/10 02:21:30;;;;;;;17.23;15.43;;;16.00;99.90;;;;;;4978684;28;20048;-69
2022/09/10 02:24:08;;;;;;;18.75;14.93;;;16.00;99.90;;;;;;4978319;28;20529;-69
2022/09/10 02:26:38;;;;;;;15.52;13.55;;;16.00;99.90;;;;;;4978416;28;20053;-69
2022/09/10 02:29:05;;;;;;;16.77;14.43;;;16.00;99.90;;;;;;4978219;28;20529;-69
2022/09/10 02:31:30;;;;;;;19.48;15.40;;;16.00;99.90;;;;;;4978146;28;20042;-69
2022/09/10 02:33:56;;;;;;;16.33;14.63;;;16.00;99.90;;;;;;4978175;28;20050;-69
2022/09/10 02:36:24;;;;;;;19.98;15.20;;;16.00;99.90;;;;;;4978089;28;20038;-69
2022/09/10 02:38:50;;;;;;;18.08;14.98;;;16.00;99.90;;;;;;4978196;28;20046;-69
2022/09/10 02:41:16;;;;;;;17.05;14.38;;;16.00;99.90;;;;;;4978057;28;20061;-69
2022/09/10 02:43:44;;;;;;;16.60;14.85;;;16.00;99.90;;;;;;4994185;28;20038;-69
2022/09/10 02:46:09;;;;;;;16.48;14.73;;;16.00;99.90;;;;;;4977759;28;20054;-69
2022/09/10 02:48:35;;;;;;;16.10;14.45;;;16.00;99.90;;;;;;4977873;28;20124;-69
2022/09/10 02:51:01;;;;;;;15.75;14.05;;;16.00;99.90;;;;;;4977789;28;20118;-70
2022/09/10 02:53:27;;;;;;;16.88;13.93;;;15.90;99.90;;;;;;4977697;28;20415;-69
2022/09/10 02:55:53;;;;;;;20.08;14.18;;;15.90;99.90;;;;;;4977738;28;20034;-69
2022/09/10 02:58:19;;;;;;;19.40;15.23;;;16.00;99.90;;;;;;4977883;28;20054;-69
2022/09/10 03:00:46;;;;;;;15.27;13.55;;;15.90;99.90;;;;;;4976685;28;20049;-69
2022/09/10 03:03:11;;;;;;;15.85;14.02;;;15.90;99.90;;;;;;4977840;28;20046;-69
2022/09/10 03:05:37;;;;;;;16.10;14.43;;;15.90;99.90;;;;;;4995232;28;20045;-69
2022/09/10 03:08:08;;;;;;;18.40;14.15;;;15.90;99.90;;;;;;4977413;28;20121;-69
2022/09/10 03:10:34;;;;;;;16.80;15.02;;;15.90;99.90;;;;;;4977304;28;20077;-69
2022/09/10 03:13:00;;;;;;;16.25;14.18;;;15.90;99.90;;;;;;4977439;28;20046;-69
2022/09/10 03:15:26;;;;;;;17.48;14.82;;;15.90;99.90;;;;;;4977401;28;20050;-69
2022/09/10 03:17:52;;;;;;;16.95;14.98;;;15.90;99.90;;;;;;4977214;28;20042;-69
2022/09/10 03:20:19;;;;;;;18.33;15.05;;;15.80;99.90;;;;;;4977232;28;20046;-69
2022/09/10 03:22:46;;;;;;;18.52;14.52;;;15.80;99.90;;;;;;4977240;28;20074;-69
2022/09/10 03:25:11;;;;;;;17.67;14.25;;;15.80;99.90;;;;;;4977159;28;20046;-69
2022/09/10 03:27:37;;;;;;;15.55;13.95;;;15.80;99.90;;;;;;4977101;28;20092;-69
2022/09/10 03:30:03;;;;;;;15.35;13.70;;;15.80;99.90;;;;;;4994329;28;20042;-69
2022/09/10 03:32:31;;;;;;;22.08;15.05;;;15.90;99.90;;;;;;4977276;28;20042;-69
2022/09/10 03:34:56;;;;;;;15.43;13.82;;;15.80;99.90;;;;;;4977003;28;20046;-69
2022/09/10 03:37:23;;;;;;;17.08;15.05;;;15.80;99.90;;;;;;4977099;28;20065;-69
2022/09/10 03:39:48;;;;;;;16.02;14.25;;;15.80;99.90;;;;;;4976903;28;20038;-69
2022/09/10 03:42:14;;;;;;;15.95;13.95;;;15.80;99.90;;;;;;4976875;28;20038;-69
2022/09/10 03:44:40;;;;;;;16.52;14.82;;;15.80;99.90;;;;;;4977142;28;20078;-69
2022/09/10 03:47:05;;;;;;;16.13;13.50;;;15.80;99.90;;;;;;4976765;28;20554;-69
2022/09/10 03:49:31;;;;;;;16.67;14.27;;;15.80;99.90;;;;;;4976744;28;20042;-69
2022/09/10 03:51:57;;;;;;;16.98;15.30;;;15.80;99.90;;;;;;4976677;28;20499;-69
2022/09/10 03:54:23;;;;;;;16.70;14.88;;;15.80;99.90;;;;;;4960661;28;20050;-69
2022/09/10 03:56:48;;;;;;;16.63;14.82;;;15.80;99.90;;;;;;4976601;28;20054;-69
2022/09/10 03:59:14;;;;;;;16.42;13.70;;;15.80;99.90;;;;;;4976879;28;20124;-69
2022/09/10 04:01:40;;;;;;;21.40;15.30;;;15.80;99.90;;;;;;4976636;28;20113;-69
2022/09/10 04:04:07;;;;;;;19.67;15.25;;;15.80;99.90;;;;;;4976894;28;20050;-69
2022/09/10 04:06:33;;;;;;;16.30;14.63;;;15.80;99.90;;;;;;4976452;28;20100;-69
2022/09/10 04:09:00;;;;;;;16.63;14.93;;;15.80;99.90;;;;;;4976432;28;20054;-69
2022/09/10 04:11:26;;;;;;;17.42;15.15;;;15.80;99.90;;;;;;4960194;28;20165;-69
2022/09/10 04:13:53;;;;;;;17.27;14.38;;;15.80;99.90;;;;;;4976447;28;20046;-69
2022/09/10 04:16:20;;;;;;;15.73;14.13;;;15.80;99.90;;;;;;4976377;28;20046;-69
2022/09/10 04:18:45;;;;;;;18.02;14.38;;;15.80;99.90;;;;;;4976412;28;20038;-69
2022/09/10 04:21:11;;;;;;;16.42;14.27;;;15.80;99.90;;;;;;4976414;28;20043;-69
2022/09/10 04:23:40;;;;;;;17.42;14.75;;;15.80;99.90;;;;;;4976368;28;20046;-69
2022/09/10 04:26:16;;;;;;;17.00;14.38;;;15.80;99.90;;;;;;4993635;28;20157;-69
2022/09/10 04:28:42;;;;;;;21.50;15.95;;;15.90;99.90;;;;;;4976576;28;20043;-69
2022/09/10 04:31:08;;;;;;;18.77;15.85;;;15.80;99.90;;;;;;4976272;28;20046;-69
2022/09/10 04:33:34;;;;;;;20.08;14.23;;;15.80;99.90;;;;;;4976296;28;20388;-69
2022/09/10 04:35:59;;;;;;;19.23;15.45;;;15.90;99.90;;;;;;4976217;28;20054;-69
2022/09/10 04:38:25;;;;;;;21.98;16.15;;;15.80;99.90;;;;;;4976036;28;20113;-69
2022/09/10 04:40:51;;;;;;;17.83;15.75;;;15.90;99.90;;;;;;4976255;28;20129;-69
2022/09/10 04:43:17;;;;;;;16.95;15.25;;;15.90;99.90;;;;;;4976417;28;20130;-69
2022/09/10 04:45:42;;;;;;;18.27;16.17;;;15.90;99.90;;;;;;4976198;28;20054;-69
2022/09/10 04:48:08;;;;;;;20.83;15.32;;;15.90;99.90;;;;;;4976088;28;20054;-69
2022/09/10 04:50:34;;;;;;;20.35;16.60;;;15.90;99.90;;;;;;4976106;28;20043;-69
2022/09/10 04:53:00;;;;;;;19.05;15.52;;;15.90;99.90;;;;;;4960315;28;20042;-69
2022/09/10 04:55:26;;;;;;;17.13;15.43;;;16.00;99.90;;;;;;4976301;28;20042;-69
2022/09/10 04:57:53;;;;;;;17.83;15.88;;;15.90;99.90;;;;;;4976263;28;20168;-69
2022/09/10 05:00:19;;;;;;;18.27;15.63;;;15.90;99.90;;;;;;4976207;28;20070;-69
2022/09/10 05:02:45;;;;;;;20.27;15.55;;;15.90;99.90;;;;;;4976042;28;20454;-69
2022/09/10 05:05:10;;;;;;;24.73;16.20;;;15.90;99.90;;;;;;4976219;28;20042;-69
2022/09/10 05:07:36;;;;;;;26.88;16.58;;;15.90;99.90;;;;;;4976254;28;20518;-69
2022/09/10 05:10:01;;;;;;;24.85;16.98;;;15.90;99.90;;;;;;4975988;28;20049;-69
2022/09/10 05:12:27;;;;;;;22.50;15.73;;;15.90;99.90;;;;;;4975876;28;20121;-69
2022/09/10 05:14:53;;;;;;;25.85;17.65;;;15.90;99.90;;;;;;4975915;28;20053;-69
2022/09/10 05:17:19;;;;;;;26.55;18.15;;;15.90;99.90;;;;;;4976617;28;20047;-69
2022/09/10 05:19:44;;;;;;;25.90;16.85;;;15.90;99.90;;;;;;4975743;28;20045;-69
2022/09/10 05:22:10;;;;;;;31.10;18.33;;;15.90;99.90;;;;;;4975804;28;20069;-69
2022/09/10 05:24:36;;;;;;;23.60;18.48;;;16.00;99.90;;;;;;4977553;28;20050;-69
2022/09/10 05:27:01;;;;;;;23.77;17.25;;;15.90;99.90;;;;;;4979388;28;20129;-69
2022/09/10 05:29:27;;;;;;;26.42;18.40;;;16.00;99.90;;;;;;4996782;28;20121;-69
2022/09/10 05:31:52;;;;;;;34.60;18.30;;;16.00;99.90;;;;;;4979152;28;20085;-69
2022/09/10 05:34:19;;;;;;;26.40;16.90;;;16.00;99.90;;;;;;4979468;28;20046;-69
2022/09/10 05:36:44;;;;;;;25.15;17.40;;;16.00;99.90;;;;;;4979403;28;20113;-69
2022/09/10 05:39:10;;;;;;;30.52;17.00;;;16.10;99.90;;;;;;4979443;28;20403;-69
2022/09/10 05:41:36;;;;;;;23.55;16.50;;;16.10;99.90;;;;;;4979358;28;20050;-69
2022/09/10 05:44:02;;;;;;;26.00;17.17;;;16.10;99.90;;;;;;4979286;28;20121;-69
2022/09/10 05:46:29;;;;;;;30.10;17.67;;;16.10;99.90;;;;;;4979146;28;20471;-69
2022/09/10 05:48:55;;;;;;;27.60;17.65;;;16.10;99.90;;;;;;4978962;28;20411;-69
2022/09/10 05:51:21;;;;;;;28.58;17.60;;;16.10;99.90;;;;;;4978825;28;20031;-69
2022/09/10 05:53:47;;;;;;;27.60;17.80;;;16.10;99.90;;;;;;4978928;28;20399;-69
2022/09/10 05:56:12;;;;;;;28.38;17.98;;;16.10;99.90;;;;;;4978775;28;20046;-69
2022/09/10 05:58:38;;;;;;;32.42;18.38;;;16.10;99.90;;;;;;4978806;28;20042;-69
2022/09/10 06:01:03;;;;;;;29.58;17.10;;;16.20;99.90;;;;;;4978768;28;20049;-69
2022/09/10 06:03:29;;;;;;;22.80;17.13;;;16.20;99.90;;;;;;4978802;28;20043;-69
2022/09/10 06:05:54;;;;;;;28.35;17.10;;;16.20;99.90;;;;;;4978716;28;20129;-69
2022/09/10 06:08:21;;;;;;;29.40;18.98;;;16.20;99.90;;;;;;4996264;28;20086;-69
2022/09/10 06:11:04;;;;;;;28.25;17.70;;;16.20;99.90;;;;;;4995959;28;20038;-69
2022/09/10 06:13:31;;;;;;;28.83;17.25;;;16.30;99.90;;;;;;4978834;28;20117;-69
2022/09/10 06:15:58;;;;;;;27.83;16.75;;;16.20;99.90;;;;;;4978789;28;20038;-70
2022/09/10 06:18:23;;;;;;;29.05;17.98;;;16.30;99.90;;;;;;4978632;28;20050;-69
2022/09/10 06:20:59;;;;;;;26.83;18.45;;;16.40;99.90;;;;;;4978476;28;20514;-69
2022/09/10 06:23:25;;;;;;;22.83;16.30;;;16.40;99.90;;;;;;4978651;28;20084;-69
2022/09/10 06:26:03;;;;;;;31.58;18.15;;;16.40;99.90;;;;;;4978312;28;20120;-69
2022/09/10 06:28:29;;;;;;;26.27;16.90;;;16.50;99.90;;;;;;4978306;28;20116;-69
2022/09/10 06:30:55;;;;;;;24.58;18.15;;;16.50;99.90;;;;;;4978151;28;20112;-69
2022/09/10 06:33:20;;;;;;;24.02;17.52;;;16.50;99.90;;;;;;4978249;28;20097;-69
2022/09/10 06:35:57;;;;;;;27.73;17.95;;;16.50;99.90;;;;;;4978109;28;20038;-69
2022/09/10 06:38:24;;;;;;;28.80;17.73;;;16.60;99.90;;;;;;4977987;28;20039;-70
2022/09/10 06:40:53;;;;;;;29.15;17.50;;;16.50;99.90;;;;;;4995718;28;20046;-70
2022/09/10 06:43:22;;;;;;;28.58;18.15;;;16.60;99.90;;;;;;4978276;28;20057;-69
2022/09/10 06:45:51;;;;;;;26.13;16.85;;;16.60;99.90;;;;;;4977938;28;20070;-69
2022/09/10 06:48:18;;;;;;;30.92;18.80;;;16.60;99.90;;;;;;4978088;28;20430;-70
2022/09/10 06:50:55;;;;;;;27.63;17.38;;;16.60;99.90;;;;;;4977760;28;20053;-70
2022/09/10 06:53:21;;;;;;;24.65;18.45;;;16.70;99.90;;;;;;4977841;28;20387;-69
2022/09/10 06:55:51;;;;;;;32.10;18.75;;;16.60;99.90;;;;;;4977834;28;20125;-69
2022/09/10 06:58:23;;;;;;;29.67;18.77;;;16.70;99.90;;;;;;4977675;28;20042;-69
2022/09/10 07:00:50;;;;;;;27.15;19.50;;;16.70;99.90;;;;;;4978211;28;20046;-69
2022/09/10 07:03:17;;;;;;;26.33;19.15;;;16.70;99.90;;;;;;4977898;28;20077;-70
2022/09/10 07:05:44;;;;;;;27.30;18.48;;;16.70;99.90;;;;;;4977584;28;20049;-70
2022/09/10 07:08:14;;;;;;;34.15;20.05;;;16.70;99.90;;;;;;4977735;28;20050;-69
2022/09/10 07:10:40;;;;;;;31.02;18.70;;;16.80;99.90;;;;;;4977381;28;20042;-69
2022/09/10 07:13:07;;;;;;;34.03;19.13;;;16.80;99.90;;;;;;4977403;28;20073;-69
2022/09/10 07:15:33;;;;;;;28.33;19.73;;;16.80;99.90;;;;;;4977426;28;20038;-69
2022/09/10 07:17:59;;;;;;;30.48;18.60;;;16.80;99.90;;;;;;4977273;28;20526;-70
2022/09/10 07:20:27;;;;;;;33.45;19.23;;;16.90;99.90;;;;;;4977267;28;20125;-70
2022/09/10 07:22:54;;;;;;;31.92;19.70;;;16.90;99.90;;;;;;4977161;28;20392;-69
2022/09/10 07:25:20;;;;;;;30.92;19.63;;;17.00;99.90;;;;;;4977259;28;20046;-69
2022/09/10 07:27:46;;;;;;;27.05;19.27;;;17.00;99.90;;;;;;4961026;28;20517;-69
2022/09/10 07:30:12;;;;;;;30.92;20.27;;;17.00;99.90;;;;;;4994368;28;20070;-69
2022/09/10 07:32:38;;;;;;;22.92;18.35;;;17.00;99.90;;;;;;4977082;28;20042;-69
2022/09/10 07:35:06;;;;;;;27.58;20.20;;;17.10;99.90;;;;;;4976955;28;20046;-69
2022/09/10 07:37:33;;;;;;;27.52;19.02;;;17.10;99.90;;;;;;4976953;28;20514;-69
2022/09/10 07:39:59;;;;;;;30.05;19.38;;;17.10;99.90;;;;;;4977156;28;20522;-69
2022/09/10 07:42:25;;;;;;;29.00;19.65;;;17.20;99.90;;;;;;4993336;28;20046;-69
2022/09/10 07:44:51;;;;;;;32.95;19.48;;;17.20;99.90;;;;;;4993258;28;20399;-69
2022/09/10 07:47:17;;;;;;;25.27;17.42;;;17.30;99.90;;;;;;4976311;28;20035;-69
2022/09/10 07:49:43;;;;;;;25.23;18.58;;;17.30;99.90;;;;;;4977073;28;20065;-69
2022/09/10 07:52:10;;;;;;;24.08;18.30;;;17.30;99.90;;;;;;4976657;28;20066;-69
2022/09/10 07:54:36;;;;;;;26.70;18.42;;;17.30;99.90;;;;;;4976777;28;20054;-69
2022/09/10 07:57:03;;;;;;;27.55;18.95;;;17.30;99.90;;;;;;4976626;28;20038;-69
2022/09/10 07:59:29;;;;;;;22.85;17.50;;;17.30;99.90;;;;;;4976514;28;20057;-69
2022/09/10 08:01:55;;;;;;;22.42;18.33;;;17.30;99.90;;;;;;4976658;28;20042;-69
2022/09/10 08:04:22;;;;;;;26.30;17.80;;;17.30;99.90;;;;;;4976660;28;20047;-69
2022/09/10 08:06:47;;;;;;;27.75;17.98;;;17.30;99.90;;;;;;4976457;28;20426;-70
2022/09/10 08:09:13;;;;;;;21.83;16.45;;;17.30;99.90;;;;;;4976570;28;20049;-69
2022/09/10 08:11:39;;;;;;;30.17;17.38;;;17.40;99.90;;;;;;4976504;28;20188;-69
2022/09/10 08:14:05;;;;;;;23.50;16.73;;;17.40;99.90;;;;;;4976422;28;20046;-69
2022/09/10 08:16:32;;;;;;;27.65;17.63;;;17.40;99.90;;;;;;4976363;28;20046;-69
2022/09/10 08:18:59;;;;;;;25.08;16.60;;;17.40;99.90;;;;;;4960531;28;20038;-69
2022/09/10 08:21:25;;;;;;;23.35;16.73;;;17.40;99.90;;;;;;4976347;28;20050;-69
2022/09/10 08:23:54;;;;;;;20.05;15.73;;;17.40;99.90;;;;;;4976660;28;20046;-69
2022/09/10 08:26:22;;;;;;;23.88;16.50;;;17.50;99.90;;;;;;4976267;28;20108;-70
2022/09/10 08:28:48;;;;;;;21.98;15.40;;;17.50;99.90;;;;;;4976569;28;20058;-69
2022/09/10 08:31:15;;;;;;;25.65;16.25;;;17.50;99.90;;;;;;4976305;28;20054;-69
2022/09/10 08:33:41;;;;;;;19.63;15.57;;;17.60;99.90;;;;;;4976461;28;20077;-69
2022/09/10 08:36:10;;;;;;;18.92;16.20;;;17.60;99.90;;;;;;4976144;28;20066;-70
2022/09/10 08:38:41;;;;;;;24.98;17.13;;;17.70;99.90;;;;;;4976097;28;20046;-70
2022/09/10 08:41:11;;;;;;;23.02;16.65;;;17.70;99.90;;;;;;4976185;28;20522;-69
2022/09/10 08:43:47;;;;;;;23.00;15.80;;;17.80;99.90;;;;;;4976219;28;20056;-69
2022/09/10 08:46:25;;;;;;;21.00;15.25;;;17.80;99.90;;;;;;4976116;28;20127;-70
2022/09/10 08:49:13;;;;;;;20.15;14.60;;;17.90;99.90;;;;;;4960267;28;20093;-69
2022/09/10 08:51:51;;;;;;;18.73;14.38;;;17.90;99.90;;;;;;4975994;28;20098;-70
2022/09/10 08:54:23;;;;;;;18.90;14.25;;;17.90;99.90;;;;;;4976040;28;20077;-70
2022/09/10 08:56:49;;;;;;;14.13;10.20;;;17.90;99.90;;;;;;4976265;28;20038;-70
2022/09/10 08:59:27;;;;;;;17.73;12.93;;;17.90;99.90;;;;;;4977358;28;20050;-70
2022/09/10 09:01:59;;;;;;;17.05;11.73;;;18.00;99.90;;;;;;4980150;28;20068;-70
2022/09/10 09:04:41;;;;;;;10.48;8.43;;;17.90;99.90;;;;;;4980167;28;20511;-70
2022/09/10 09:07:18;;;;;;;13.43;9.70;;;18.00;99.90;;;;;;4963622;28;20061;-70
2022/09/10 09:09:46;;;;;;;11.88;8.57;;;18.00;99.90;;;;;;4979708;28;20050;-70
2022/09/10 09:12:50;;;;;;;14.32;9.57;;;18.00;99.90;;;;;;4979599;28;20465;-69
2022/09/10 09:15:30;;;;;;;14.27;9.35;;;18.00;99.90;;;;;;4979060;28;20411;-73
2022/09/10 09:18:09;;;;;;;15.02;11.07;;;18.00;99.90;;;;;;4963310;28;20049;-72
2022/09/10 09:20:43;;;;;;;16.00;10.52;;;18.10;99.90;;;;;;4979493;28;20085;-71
2022/09/10 09:23:22;;;;;;;14.50;11.18;;;18.10;99.90;;;;;;4979518;28;20503;-70
2022/09/10 09:25:50;;;;;;;12.38;10.60;;;18.20;99.90;;;;;;4979423;28;20061;-72
2022/09/10 09:29:13;;;;;;;17.13;11.55;;;18.20;99.90;;;;;;4979583;28;20031;-72
2022/09/10 09:31:50;;;;;;;15.60;11.13;;;18.30;99.90;;;;;;4902145;29;20165;-73
2022/09/10 09:34:21;;;;;;;13.48;11.02;;;18.40;99.90;;;;;;4969424;28;20519;-73
2022/09/10 09:36:52;;;;;;;21.88;13.27;;;18.50;99.90;;;;;;4979026;28;20042;-74
2022/09/10 09:39:29;;;;;;;18.55;11.40;;;18.60;99.90;;;;;;4979255;28;20030;-73
2022/09/10 09:42:11;;;;;;;14.43;10.95;;;18.70;99.90;;;;;;4979146;28;20050;-72
2022/09/10 09:44:47;;;;;;;15.15;9.50;;;18.80;99.90;;;;;;4979088;28;20057;-73
2022/09/10 09:47:13;;;;;;;16.25;11.30;;;18.90;99.90;;;;;;4979015;28;20042;-73
2022/09/10 09:49:39;;;;;;;16.77;12.25;;;18.90;99.90;;;;;;4963524;28;20038;-73
2022/09/10 09:52:25;;;;;;;16.33;11.30;;;19.00;99.90;;;;;;4978911;28;20517;-73
2022/09/10 09:55:00;;;;;;;16.33;10.02;;;19.10;99.90;;;;;;4978867;28;20038;-73
2022/09/10 09:57:26;;;;;;;17.50;10.60;;;19.20;99.90;;;;;;4979059;28;20091;-74
2022/09/10 09:59:52;;;;;;;228.85;204.40;;;19.30;99.90;;;;;;4978761;28;20046;-73
2022/09/10 10:02:20;;;;;;;23.92;16.92;;;19.50;99.90;;;;;;4978796;28;20108;-73
2022/09/10 10:05:02;;;;;;;13.15;9.75;;;19.70;99.90;;;;;;4962577;28;20042;-73
2022/09/10 10:07:32;;;;;;;12.00;8.50;;;19.90;99.90;;;;;;4962874;28;20077;-74
2022/09/10 10:10:00;;;;;;;13.15;9.40;;;20.00;99.90;;;;;;4978277;28;20042;-74
2022/09/10 10:12:30;;;;;;;11.93;7.63;;;20.10;99.90;;;;;;4978533;28;20049;-70
2022/09/10 10:14:57;;;;;;;10.25;7.47;;;20.30;99.90;;;;;;4978816;28;20053;-70
2022/09/10 10:17:36;;;;;;;8.60;6.45;;;20.40;99.90;;;;;;4978489;28;20041;-70
2022/09/10 10:20:12;;;;;;;11.43;6.93;;;20.50;99.90;;;;;;4978464;28;20042;-71
2022/09/10 10:22:40;;;;;;;13.02;6.90;;;20.60;99.90;;;;;;4978372;28;20407;-71
2022/09/10 10:25:40;;;;;;;12.38;7.32;;;20.60;99.90;;;;;;4978290;28;20053;-71
2022/09/10 10:28:24;;;;;;;14.02;6.95;;;20.70;99.90;;;;;;4978254;28;20047;-70
2022/09/10 10:30:55;;;;;;;12.75;6.97;;;20.80;99.90;;;;;;4978086;28;20054;-70
2022/09/10 10:33:27;;;;;;;9.52;6.95;;;20.80;99.90;;;;;;4978179;28;20053;-70
2022/09/10 10:36:03;;;;;;;13.73;7.88;;;20.90;99.90;;;;;;4978252;28;20034;-70
2022/09/10 10:38:36;;;;;;;12.32;7.15;;;21.00;99.90;;;;;;4977999;28;20050;-70
2022/09/10 10:41:40;;;;;;;10.25;7.22;;;21.00;99.90;;;;;;4977981;28;20046;-70
2022/09/10 10:44:37;;;;;;;11.18;7.78;;;21.20;99.90;;;;;;4977971;28;20415;-70
2022/09/10 10:47:42;;;;;;;14.38;8.60;;;21.30;99.90;;;;;;4977900;28;20053;-70
2022/09/10 10:50:25;;;;;;;13.30;8.77;;;21.50;99.90;;;;;;4978195;28;20037;-70
2022/09/10 10:53:10;;;;;;;10.60;7.90;;;21.50;99.90;;;;;;4977866;28;20053;-70
2022/09/10 10:55:52;;;;;;;10.55;7.57;;;21.50;99.90;;;;;;4978063;28;20057;-70
2022/09/10 10:58:54;;;;;;;13.10;8.52;;;21.70;99.90;;;;;;4977674;28;20077;-70
2022/09/10 11:01:23;;;;;;;12.00;7.85;;;21.80;99.90;;;;;;4995421;28;20050;-70
2022/09/10 11:04:21;;;;;;;12.32;7.10;;;21.80;99.90;;;;;;4977601;28;20076;-69
2022/09/10 11:06:57;;;;;;;9.65;7.13;;;22.00;99.90;;;;;;4937638;28;20051;-69
2022/09/10 11:09:37;;;;;;;11.63;7.10;;;22.10;99.90;;;;;;4977810;28;20050;-70
2022/09/10 11:12:23;;;;;;;10.25;6.47;;;22.10;99.90;;;;;;4977554;28;20042;-70
2022/09/10 11:15:18;;;;;;;8.38;6.20;;;22.30;99.90;;;;;;4977490;28;20088;-70
2022/09/10 11:17:53;;;;;;;8.32;5.50;;;22.40;99.90;;;;;;4977363;28;20042;-70
2022/09/10 11:20:34;;;;;;;14.63;6.97;;;22.40;99.90;;;;;;4961284;28;20034;-70
2022/09/10 11:23:28;;;;;;;10.23;6.13;;;22.50;99.90;;;;;;4976607;28;20054;-70
2022/09/10 11:25:59;;;;;;;10.48;5.95;;;22.60;99.90;;;;;;4977173;28;20088;-70
2022/09/10 11:28:30;;;;;;;11.23;6.65;;;22.70;99.90;;;;;;4977291;28;20038;-70
2022/09/10 11:31:08;;;;;;;9.73;5.90;;;22.90;99.90;;;;;;4977144;28;20038;-70
2022/09/10 11:34:13;;;;;;;8.75;5.55;;;23.10;99.90;;;;;;4977306;28;20046;-70
2022/09/10 11:37:08;;;;;;;8.77;6.07;;;23.10;99.90;;;;;;4949282;28;20062;-70
2022/09/10 11:39:45;;;;;;;11.32;6.97;;;23.00;99.90;;;;;;4976975;28;20041;-70
2022/09/10 11:42:27;;;;;;;9.10;6.60;;;22.80;99.90;;;;;;4977306;28;20042;-70
2022/09/10 11:45:11;;;;;;;12.52;6.70;;;22.70;99.90;;;;;;4977012;28;20117;-70
2022/09/10 11:47:44;;;;;;;10.40;5.88;;;22.60;99.90;;;;;;4994532;28;20042;-70
2022/09/10 11:50:20;;;;;;;12.73;6.57;;;22.50;99.90;;;;;;4977164;28;20526;-70
2022/09/10 11:52:46;;;;;;;9.20;5.65;;;22.40;99.90;;;;;;4976723;28;20435;-70
2022/09/10 11:55:16;;;;;;;11.35;7.30;;;22.30;99.90;;;;;;4976722;28;20045;-71
2022/09/10 11:58:06;;;;;;;11.27;6.35;;;22.30;99.90;;;;;;4976627;28;20042;-70
2022/09/10 12:00:44;;;;;;;12.70;6.70;;;22.30;99.90;;;;;;4976617;28;20089;-70
2022/09/10 12:03:30;;;;;;;8.90;6.60;;;22.30;99.90;;;;;;4976531;28;20070;-70
2022/09/10 12:06:13;;;;;;;12.13;7.13;;;22.30;99.90;;;;;;4976551;28;20495;-70
2022/09/10 12:08:47;;;;;;;9.02;6.63;;;22.30;99.90;;;;;;4976547;28;20101;-70
2022/09/10 12:11:34;;;;;;;11.55;7.28;;;22.30;99.90;;;;;;4976350;28;20050;-70
2022/09/10 12:14:12;;;;;;;11.15;6.90;;;22.30;99.90;;;;;;4976401;28;20061;-71
2022/09/10 12:16:55;;;;;;;14.13;7.75;;;22.30;99.90;;;;;;4976330;28;20117;-70
2022/09/10 12:19:23;;;;;;;10.15;6.78;;;22.30;99.90;;;;;;4976669;28;20093;-70
2022/09/10 12:21:53;;;;;;;9.40;6.65;;;22.30;99.90;;;;;;4976299;28;20054;-71
2022/09/10 12:24:31;;;;;;;8.93;6.38;;;22.50;99.90;;;;;;4976634;28;20073;-70
2022/09/10 12:27:02;;;;;;;11.50;6.68;;;22.70;99.90;;;;;;4977083;28;20039;-70
2022/09/10 12:29:34;;;;;;;11.05;6.20;;;22.80;99.90;;;;;;4976288;28;20046;-70
2022/09/10 12:32:17;;;;;;;12.97;6.17;;;22.90;99.90;;;;;;4976184;28;20120;-70
2022/09/10 12:34:49;;;;;;;6.32;5.22;;;23.00;99.90;;;;;;4982598;28;20046;-69
2022/09/10 12:37:33;;;;;;;9.73;6.25;;;23.10;99.90;;;;;;4982552;28;20045;-70
2022/09/10 12:40:34;;;;;;;9.70;5.78;;;23.20;99.90;;;;;;4982975;28;20042;-70
2022/09/10 12:43:38;;;;;;;9.13;6.25;;;23.30;99.90;;;;;;4982435;28;20054;-70
2022/09/10 12:46:09;;;;;;;9.05;5.70;;;23.30;99.90;;;;;;4982441;28;20522;-71
2022/09/10 12:48:50;;;;;;;8.63;4.90;;;23.30;99.90;;;;;;4966273;28;20049;-71
2022/09/10 12:51:15;;;;;;;12.45;5.93;;;23.30;99.90;;;;;;4982534;28;20515;-71
2022/09/10 12:54:00;;;;;;;6.53;5.30;;;23.30;99.90;;;;;;4982818;28;20122;-70